METAR Data
IDs: Format: Raw Decoded Include TAF

Data at: 0310 UTC 25 Feb 2021

ESGG 250250Z 23014KT 9999 -DZ FEW020 SCT047 BKN094 09/06 Q1017 R21/29//95